createdAt,value
2022-09-07T00:02:29.384Z,13.03
2022-09-07T00:05:32.298Z,12.68
2022-09-07T00:08:34.947Z,11.00
2022-09-07T00:11:37.325Z,12.48
2022-09-07T00:14:39.780Z,12.60
2022-09-07T00:17:42.288Z,16.37
2022-09-07T00:20:45.283Z,17.85
2022-09-07T00:23:49.652Z,12.13
2022-09-07T00:26:55.380Z,12.25
2022-09-07T00:29:57.813Z,13.17
2022-09-07T00:33:00.498Z,13.10
2022-09-07T00:36:03.818Z,15.27
2022-09-07T00:39:06.604Z,12.93
2022-09-07T00:42:09.332Z,17.85
2022-09-07T00:45:21.759Z,14.27
2022-09-07T00:48:29.941Z,13.23
2022-09-07T00:51:38.795Z,15.05
2022-09-07T00:54:46.584Z,14.57
2022-09-07T00:57:54.702Z,15.68
2022-09-07T01:00:57.291Z,15.00
2022-09-07T01:04:01.623Z,14.13
2022-09-07T01:07:05.664Z,15.90
2022-09-07T01:10:09.645Z,15.48
2022-09-07T01:13:12.116Z,14.63
2022-09-07T01:16:41.893Z,15.77
2022-09-07T01:19:44.520Z,15.30
2022-09-07T01:23:11.831Z,13.52
2022-09-07T01:26:23.443Z,15.48
2022-09-07T01:29:38.859Z,14.55
2022-09-07T01:33:01.660Z,17.80
2022-09-07T01:36:26.616Z,17.90
2022-09-07T01:39:56.281Z,14.85
2022-09-07T01:43:07.420Z,14.98
2022-09-07T01:46:21.040Z,17.23
2022-09-07T01:49:30.494Z,16.90
2022-09-07T01:52:38.098Z,17.03
2022-09-07T01:55:48.643Z,15.32
2022-09-07T01:58:56.190Z,15.75
2022-09-07T02:02:16.751Z,18.77
2022-09-07T02:05:23.829Z,14.90
2022-09-07T02:08:32.179Z,17.83
2022-09-07T02:11:40.511Z,18.15
2022-09-07T02:14:52.551Z,16.42
2022-09-07T02:18:04.149Z,17.08
2022-09-07T02:21:09.033Z,16.43
2022-09-07T02:24:23.861Z,18.07
2022-09-07T02:27:38.087Z,16.38
2022-09-07T02:30:40.733Z,16.85
2022-09-07T02:33:43.476Z,16.20
2022-09-07T02:36:49.027Z,17.27
2022-09-07T02:39:52.529Z,15.77
2022-09-07T02:42:57.952Z,18.02
2022-09-07T02:46:16.654Z,16.90
2022-09-07T02:49:53.256Z,18.05
2022-09-07T02:53:17.470Z,17.63
2022-09-07T02:56:41.649Z,17.53
2022-09-07T02:59:55.397Z,18.25
2022-09-07T03:03:08.373Z,19.65
2022-09-07T03:06:24.258Z,18.15
2022-09-07T03:09:30.809Z,17.83
2022-09-07T03:12:45.319Z,21.90
2022-09-07T03:15:51.309Z,19.63
2022-09-07T03:18:56.090Z,17.30
2022-09-07T03:21:58.552Z,17.90
2022-09-07T03:25:01.723Z,18.50
2022-09-07T03:28:04.794Z,19.90
2022-09-07T03:31:07.301Z,21.25
2022-09-07T03:34:10.437Z,20.63
2022-09-07T03:37:12.870Z,19.98
2022-09-07T03:40:16.292Z,21.60
2022-09-07T03:43:18.699Z,18.10
2022-09-07T03:46:21.821Z,18.33
2022-09-07T03:49:24.395Z,22.63
2022-09-07T03:52:26.847Z,17.60
2022-09-07T03:55:29.274Z,21.97
2022-09-07T03:58:33.480Z,22.00
2022-09-07T04:01:36.503Z,25.00
2022-09-07T04:04:39.009Z,23.75
2022-09-07T04:07:41.394Z,21.60
2022-09-07T04:10:44.097Z,21.33
2022-09-07T04:13:47.275Z,20.60
2022-09-07T04:16:50.657Z,18.40
2022-09-07T04:19:53.072Z,20.73
2022-09-07T04:22:55.557Z,18.42
2022-09-07T04:25:58.340Z,20.87
2022-09-07T04:29:01.234Z,20.83
2022-09-07T04:32:03.750Z,21.50
2022-09-07T04:35:06.843Z,21.02
2022-09-07T04:38:13.608Z,18.02
2022-09-07T04:41:17.807Z,17.37
2022-09-07T04:44:20.192Z,20.37
2022-09-07T04:47:22.629Z,17.90
2022-09-07T04:50:25.192Z,20.15
2022-09-07T04:53:27.667Z,17.92
2022-09-07T04:56:30.869Z,21.60
2022-09-07T04:59:33.265Z,18.10
2022-09-07T05:02:35.865Z,19.25
2022-09-07T05:05:38.777Z,21.40
2022-09-07T05:08:49.989Z,22.13
2022-09-07T05:11:52.508Z,18.60
2022-09-07T05:14:55.015Z,19.07
2022-09-07T05:17:58.286Z,21.88
2022-09-07T05:21:15.422Z,19.17
2022-09-07T05:24:18.861Z,17.25
2022-09-07T05:27:21.567Z,20.57
2022-09-07T05:37:15.678Z,16.70
2022-09-07T05:40:22.948Z,17.75
2022-09-07T05:43:26.244Z,18.43
2022-09-07T05:46:29.020Z,19.73
2022-09-07T05:49:32.524Z,16.98
2022-09-07T05:52:36.073Z,16.13
2022-09-07T05:55:39.028Z,17.48
2022-09-07T05:58:41.671Z,16.37
2022-09-07T06:01:44.431Z,17.83
2022-09-07T06:04:47.683Z,16.25
2022-09-07T06:07:50.289Z,16.02
2022-09-07T06:10:53.196Z,16.08
2022-09-07T06:13:55.928Z,17.30
2022-09-07T06:16:59.615Z,15.40
2022-09-07T06:20:03.089Z,16.27
2022-09-07T06:23:06.782Z,18.33
2022-09-07T06:26:11.089Z,16.38
2022-09-07T06:29:13.652Z,15.53
2022-09-07T06:35:39.151Z,16.65
2022-09-07T06:38:42.903Z,19.35
2022-09-07T06:42:00.957Z,15.27
2022-09-07T06:45:07.247Z,14.50
2022-09-07T06:48:09.697Z,12.83
2022-09-07T06:51:19.118Z,15.90
2022-09-07T06:57:44.063Z,17.73
2022-09-07T07:00:46.718Z,14.25
2022-09-07T07:03:50.424Z,14.53
2022-09-07T07:06:52.928Z,16.35
2022-09-07T07:09:55.551Z,14.95
2022-09-07T07:12:58.597Z,13.80
2022-09-07T07:16:12.074Z,15.00
2022-09-07T07:19:14.938Z,13.97
2022-09-07T07:22:45.113Z,14.38
2022-09-07T07:25:40.474Z,13.27
2022-09-07T07:29:03.963Z,12.63
2022-09-07T07:32:07.071Z,12.93
2022-09-07T07:35:10.155Z,13.47
2022-09-07T07:48:20.170Z,15.80
2022-09-07T07:51:22.778Z,15.50
2022-09-07T07:54:25.242Z,13.85
2022-09-07T07:57:28.319Z,13.68
2022-09-07T08:00:50.668Z,15.13
2022-09-07T08:03:53.307Z,12.88
2022-09-07T08:06:56.019Z,16.77
2022-09-07T08:09:58.562Z,17.52
2022-09-07T08:13:01.088Z,15.38
2022-09-07T08:16:05.498Z,14.27
2022-09-07T08:19:08.193Z,11.52
2022-09-07T08:22:11.871Z,14.57
2022-09-07T08:25:14.314Z,13.45
2022-09-07T08:28:16.726Z,13.75
2022-09-07T08:31:19.133Z,15.40
2022-09-07T08:34:22.005Z,12.95
2022-09-07T08:37:24.514Z,20.27
2022-09-07T08:40:26.913Z,13.05
2022-09-07T08:44:01.372Z,13.70
2022-09-07T08:47:33.371Z,12.80
2022-09-07T08:50:56.305Z,10.48
2022-09-07T08:53:59.132Z,11.13
2022-09-07T09:00:25.578Z,9.70
2022-09-07T09:03:32.842Z,11.18
2022-09-07T09:06:47.692Z,10.65
2022-09-07T09:10:15.546Z,9.77
2022-09-07T09:13:22.452Z,11.48
2022-09-07T09:16:48.181Z,9.50
2022-09-07T09:20:18.972Z,9.80
2022-09-07T09:23:26.730Z,11.40
2022-09-07T09:26:32.339Z,9.97
2022-09-07T09:29:34.819Z,11.20
2022-09-07T09:32:42.542Z,10.55
2022-09-07T09:35:51.731Z,9.85
2022-09-07T09:38:55.558Z,14.43
2022-09-07T09:42:01.786Z,9.43
2022-09-07T09:45:16.314Z,11.82
2022-09-07T09:48:29.504Z,10.95
2022-09-07T09:55:03.349Z,10.45
2022-09-07T10:05:36.758Z,9.43
2022-09-07T10:08:55.382Z,9.05
2022-09-07T10:12:06.858Z,10.23
2022-09-07T10:15:32.862Z,9.30
2022-09-07T10:18:57.275Z,11.48
2022-09-07T10:22:02.437Z,13.00
2022-09-07T10:25:27.885Z,10.55
2022-09-07T10:32:18.381Z,10.40
2022-09-07T10:35:23.815Z,11.90
2022-09-07T10:38:30.926Z,13.43
2022-09-07T10:42:04.623Z,9.80
2022-09-07T10:45:53.115Z,10.77
2022-09-07T10:49:07.303Z,8.97
2022-09-07T10:52:36.999Z,9.95
2022-09-07T10:55:53.260Z,9.10
2022-09-07T10:59:22.636Z,12.55
2022-09-07T11:02:37.584Z,9.27
2022-09-07T11:06:05.426Z,11.60
2022-09-07T11:09:40.373Z,9.45
2022-09-07T11:12:44.674Z,13.27
2022-09-07T11:15:56.773Z,11.23
2022-09-07T11:22:42.187Z,9.23
2022-09-07T11:26:11.444Z,9.15
2022-09-07T11:29:44.393Z,12.85
2022-09-07T11:33:09.873Z,9.13
2022-09-07T11:36:15.726Z,8.85
2022-09-07T11:39:26.965Z,9.10
2022-09-07T11:42:44.953Z,11.98
2022-09-07T11:46:04.987Z,9.60
2022-09-07T11:49:21.687Z,9.98
2022-09-07T11:52:26.957Z,10.63
2022-09-07T11:55:35.200Z,8.37
2022-09-07T11:58:51.568Z,10.27
2022-09-07T12:02:06.071Z,8.57
2022-09-07T12:05:20.253Z,17.60
2022-09-07T12:08:34.913Z,11.13
2022-09-07T12:11:58.706Z,8.70
2022-09-07T12:15:29.384Z,8.27
2022-09-07T12:19:04.899Z,9.43
2022-09-07T12:22:20.237Z,7.95
2022-09-07T12:25:23.541Z,9.52
2022-09-07T12:28:26.272Z,10.17
2022-09-07T12:32:52.770Z,9.93
2022-09-07T12:35:27.536Z,9.80
2022-09-07T12:38:36.047Z,10.05
2022-09-07T12:41:47.309Z,8.15
2022-09-07T12:45:28.425Z,8.00
2022-09-07T12:48:46.787Z,8.68
2022-09-07T12:52:18.470Z,8.55
2022-09-07T12:55:28.477Z,10.05
2022-09-07T12:58:43.182Z,9.80
2022-09-07T13:02:11.269Z,9.30
2022-09-07T13:05:40.999Z,10.63
2022-09-07T13:09:00.919Z,9.32
2022-09-07T13:16:05.702Z,9.60
2022-09-07T13:19:16.385Z,10.43
2022-09-07T13:22:30.920Z,9.40
2022-09-07T13:25:48.840Z,10.00
2022-09-07T13:29:04.366Z,12.55
2022-09-07T13:32:20.625Z,8.93
2022-09-07T13:35:25.072Z,8.17
2022-09-07T13:38:30.221Z,28.58
2022-09-07T13:41:38.063Z,9.45
2022-09-07T13:44:40.706Z,11.02
2022-09-07T13:48:16.115Z,7.88
2022-09-07T13:51:50.173Z,10.10
2022-09-07T13:54:55.455Z,10.75
2022-09-07T13:58:18.081Z,10.07
2022-09-07T14:01:28.429Z,12.52
2022-09-07T14:04:48.488Z,8.82
2022-09-07T14:07:50.842Z,10.23
2022-09-07T14:10:53.391Z,13.13
2022-09-07T14:14:16.421Z,10.05
2022-09-07T14:17:19.688Z,7.93
2022-09-07T14:20:23.627Z,11.20
2022-09-07T14:23:31.854Z,8.50
2022-09-07T14:26:34.739Z,10.02
2022-09-07T14:29:37.193Z,10.77
2022-09-07T14:32:40.307Z,9.55
2022-09-07T14:35:43.310Z,13.30
2022-09-07T14:42:16.424Z,9.68
2022-09-07T14:45:26.352Z,10.75
2022-09-07T14:48:32.426Z,11.93
2022-09-07T14:51:42.853Z,8.60
2022-09-07T14:54:51.813Z,8.63
2022-09-07T14:58:13.080Z,10.77
2022-09-07T15:04:42.504Z,8.88
2022-09-07T15:07:54.955Z,9.40
2022-09-07T15:14:28.549Z,12.75
2022-09-07T15:17:48.177Z,10.23
2022-09-07T15:20:50.903Z,9.80
2022-09-07T15:23:55.852Z,7.82
2022-09-07T15:27:05.216Z,12.53
2022-09-07T15:30:11.546Z,7.88
2022-09-07T15:33:13.902Z,11.10
2022-09-07T15:36:17.177Z,9.68
2022-09-07T15:39:22.514Z,10.55
2022-09-07T15:45:48.721Z,7.38
2022-09-07T15:48:54.869Z,15.05
2022-09-07T15:52:05.032Z,9.48
2022-09-07T15:55:08.808Z,8.90
2022-09-07T15:58:14.383Z,9.53
2022-09-07T16:04:39.246Z,11.88
2022-09-07T16:11:23.987Z,10.00
2022-09-07T16:14:26.649Z,7.67
2022-09-07T16:17:35.561Z,18.88
2022-09-07T16:20:41.126Z,28.92
2022-09-07T16:23:47.951Z,28.38
2022-09-07T16:26:50.351Z,44.08
2022-09-07T16:29:52.841Z,22.77
2022-09-07T16:32:55.253Z,22.33
2022-09-07T16:36:02.220Z,33.75
2022-09-07T16:39:04.814Z,62.47
2022-09-07T16:42:07.654Z,51.58
2022-09-07T16:48:35.216Z,52.53
2022-09-07T16:51:39.626Z,29.88
2022-09-07T16:54:42.449Z,18.38
2022-09-07T17:01:09.354Z,13.77
2022-09-07T17:04:11.969Z,17.35
2022-09-07T17:07:14.335Z,30.17
2022-09-07T17:10:16.947Z,43.03
2022-09-07T17:13:19.964Z,27.83
2022-09-07T17:16:29.593Z,21.57
2022-09-07T17:19:32.490Z,39.55
2022-09-07T17:22:35.181Z,36.45
2022-09-07T17:25:38.015Z,28.88
2022-09-07T17:28:44.068Z,21.52
2022-09-07T17:35:09.246Z,15.35
2022-09-07T17:41:35.362Z,15.50
2022-09-07T17:44:38.493Z,15.75
2022-09-07T17:47:41.569Z,13.70
2022-09-07T17:50:44.001Z,16.38
2022-09-07T17:53:46.532Z,12.65
2022-09-07T17:56:49.080Z,12.38
2022-09-07T18:03:14.343Z,13.20
2022-09-07T18:06:16.793Z,14.93
2022-09-07T18:09:20.992Z,19.73
2022-09-07T18:12:23.393Z,14.70
2022-09-07T18:15:25.728Z,14.98
2022-09-07T18:18:28.409Z,15.17
2022-09-07T18:21:33.408Z,12.13
2022-09-07T18:24:36.810Z,12.88
2022-09-07T18:27:39.841Z,10.40
2022-09-07T18:30:42.784Z,12.57
2022-09-07T18:33:45.166Z,12.97
2022-09-07T18:36:47.774Z,14.93
2022-09-07T18:39:50.183Z,13.07
2022-09-07T18:42:52.715Z,8.82
2022-09-07T18:46:04.227Z,11.98
2022-09-07T18:49:07.918Z,13.63
2022-09-07T18:55:33.136Z,12.75
2022-09-07T18:58:35.603Z,15.52
2022-09-07T19:01:38.461Z,12.38
2022-09-07T19:08:04.479Z,10.23
2022-09-07T19:11:11.174Z,11.98
2022-09-07T19:14:13.482Z,11.50
2022-09-07T19:17:16.784Z,19.08
2022-09-07T19:20:19.253Z,15.10
2022-09-07T19:23:21.516Z,22.42
2022-09-07T19:26:25.344Z,14.00
2022-09-07T19:29:29.063Z,15.07
2022-09-07T19:32:31.451Z,10.15
2022-09-07T19:35:35.659Z,12.13
2022-09-07T19:38:38.052Z,13.93
2022-09-07T19:41:44.999Z,11.48
2022-09-07T19:44:47.355Z,12.85
2022-09-07T19:47:50.629Z,10.13
2022-09-07T19:50:53.440Z,11.97
2022-09-07T19:53:55.786Z,10.13
2022-09-07T19:56:58.762Z,13.27
2022-09-07T20:00:01.067Z,12.02
2022-09-07T20:03:03.545Z,13.98
2022-09-07T20:06:13.459Z,10.60
2022-09-07T20:09:16.986Z,14.38
2022-09-07T20:12:19.295Z,12.02
2022-09-07T20:15:21.626Z,12.10
2022-09-07T20:18:26.260Z,12.93
2022-09-07T20:21:28.657Z,13.87
2022-09-07T20:24:31.246Z,10.75
2022-09-07T20:27:35.853Z,14.10
2022-09-07T20:30:43.199Z,10.50
2022-09-07T20:33:46.467Z,14.23
2022-09-07T20:36:49.938Z,11.30
2022-09-07T20:39:52.579Z,11.75
2022-09-07T20:42:54.891Z,14.50
2022-09-07T20:45:59.585Z,16.45
2022-09-07T20:49:01.954Z,11.57
2022-09-07T20:52:04.267Z,17.70
2022-09-07T20:55:06.944Z,13.52
2022-09-07T20:58:09.383Z,13.07
2022-09-07T21:01:14.077Z,13.57
2022-09-07T21:04:16.640Z,11.93
2022-09-07T21:07:18.903Z,19.03
2022-09-07T21:10:21.557Z,12.32
2022-09-07T21:13:23.854Z,15.70
2022-09-07T21:16:26.950Z,14.00
2022-09-07T21:19:29.362Z,17.25
2022-09-07T21:22:31.999Z,13.73
2022-09-07T21:25:34.325Z,12.70
2022-09-07T21:28:36.661Z,16.58
2022-09-07T21:31:39.032Z,17.50
2022-09-07T21:34:41.494Z,17.83
2022-09-07T21:37:43.834Z,20.67
2022-09-07T21:40:46.148Z,17.63
2022-09-07T21:43:50.257Z,13.95
2022-09-07T21:46:53.318Z,13.68
2022-09-07T21:49:55.654Z,12.18
2022-09-07T21:52:58.088Z,15.63
2022-09-07T21:56:03.261Z,16.25
2022-09-07T21:59:06.608Z,13.45
2022-09-07T22:02:09.015Z,15.70
2022-09-07T22:05:11.426Z,17.00
2022-09-07T22:08:14.416Z,20.73
2022-09-07T22:11:20.025Z,14.05
2022-09-07T22:14:22.380Z,13.40
2022-09-07T22:17:24.806Z,15.23
2022-09-07T22:20:27.124Z,13.60
2022-09-07T22:23:31.196Z,15.53
2022-09-07T22:26:37.727Z,14.13
2022-09-07T22:29:40.015Z,13.02
2022-09-07T22:32:50.282Z,13.57
2022-09-07T22:35:52.551Z,14.40
2022-09-07T22:38:57.115Z,14.97
2022-09-07T22:41:59.385Z,14.88
2022-09-07T22:45:01.796Z,14.70
2022-09-07T22:48:04.767Z,14.68
2022-09-07T22:51:08.836Z,12.77
2022-09-07T22:54:11.305Z,13.27
2022-09-07T22:57:13.612Z,13.98
2022-09-07T23:00:16.188Z,14.30
2022-09-07T23:03:18.765Z,17.85
2022-09-07T23:06:27.616Z,18.90
2022-09-07T23:09:29.979Z,17.50
2022-09-07T23:12:32.455Z,16.00
2022-09-07T23:15:36.289Z,14.13
2022-09-07T23:18:40.842Z,16.52
2022-09-07T23:21:44.054Z,14.55
2022-09-07T23:24:46.376Z,15.57
2022-09-07T23:27:48.935Z,14.95
2022-09-07T23:30:51.498Z,17.02
2022-09-07T23:33:54.301Z,18.45
2022-09-07T23:36:56.546Z,15.50
2022-09-07T23:39:58.911Z,16.63
2022-09-07T23:43:02.459Z,16.85
2022-09-07T23:46:04.863Z,16.75
2022-09-07T23:49:07.239Z,15.40
2022-09-07T23:52:09.539Z,15.45
2022-09-07T23:55:12.172Z,17.17
2022-09-07T23:58:14.559Z,13.05
